PRINT OUT SECTION, show ยป

METAR EPBY 170730Z 07004KT 030V100 CAVOK 25/18 Q1012=

METAR EPGD 170730Z 35006KT 310V020 CAVOK 23/19 Q1012 =

METAR EPKK 170730Z 20005KT 170V230 CAVOK 24/19 Q1012 =

METAR EPKT 170730Z VRB02KT CAVOK 25/18 Q1012 =

METAR EPLB 170730Z 03003KT 340V090 9999 SCT012 BKN018 23/21 Q1011 =

METAR EPLL 170730Z 33003KT 260V030 CAVOK 25/19 Q1011 =

METAR EPML 170730Z AUTO VRB02KT 9999 FEW037/// 23/19 Q1011=

METAR EPMO 170730Z VRB02KT CAVOK 24/19 Q1011 =

METAR EPPO 170730Z 06003KT 360V090 CAVOK 28/18 Q1012 =

METAR EPRA 170730Z 05003KT 9999 FEW020 23/23 Q1012=

METAR EPRZ 170730Z 29004KT 240V350 9999 FEW033 23/19 Q1011 =

METAR EPSC 170730Z 35003KT 320V020 CAVOK 25/18 Q1012 =

METAR EPSY 170730Z 12005KT 070V190 CAVOK 25/18 Q1012=

METAR EPWA 170730Z 08005KT 9999 FEW034 23/18 Q1011 NOSIG=

METAR EPWR 170730Z 33003KT 290V010 CAVOK 25/17 Q1012 =

METAR EPZG 170730Z 01004KT 320V060 CAVOK 26/17 Q1012 =